sensor_id;sensor_type;location;lat;lon;timestamp;pressure;altitude;pressure_sealevel;temperature;humidity
12452;BME280;72521;48.924;12.204;2024-03-02T00:02:33;71687.03;;;4.55;74.48
12452;BME280;72521;48.924;12.204;2024-03-02T00:07:37;71565.88;;;4.51;74.47
12452;BME280;72521;48.924;12.204;2024-03-02T00:12:43;71510.06;;;4.50;74.48
12452;BME280;72521;48.924;12.204;2024-03-02T00:17:53;71441.22;;;4.49;74.46
12452;BME280;72521;48.924;12.204;2024-03-02T00:23:04;71382.84;;;4.43;74.46
12452;BME280;72521;48.924;12.204;2024-03-02T00:28:19;71259.03;;;4.49;74.47
12452;BME280;72521;48.924;12.204;2024-03-02T00:33:26;71131.78;;;4.47;74.47
12452;BME280;72521;48.924;12.204;2024-03-02T00:38:31;71048.25;;;4.44;74.47
12452;BME280;72521;48.924;12.204;2024-03-02T00:43:48;70905.69;;;4.45;74.46
12452;BME280;72521;48.924;12.204;2024-03-02T00:48:56;70586.66;;;4.51;74.47
12452;BME280;72521;48.924;12.204;2024-03-02T00:54:03;70443.31;;;4.48;74.47
12452;BME280;72521;48.924;12.204;2024-03-02T00:59:10;70331.63;;;4.51;74.47
12452;BME280;72521;48.924;12.204;2024-03-02T01:04:14;70157.06;;;4.48;74.47
12452;BME280;72521;48.924;12.204;2024-03-02T01:09:18;70057.84;;;4.50;74.48
12452;BME280;72521;48.924;12.204;2024-03-02T01:14:23;69926.28;;;4.51;74.47
12452;BME280;72521;48.924;12.204;2024-03-02T01:19:27;69645.63;;;4.49;74.47
12452;BME280;72521;48.924;12.204;2024-03-02T01:24:31;69509.22;;;4.48;74.48
12452;BME280;72521;48.924;12.204;2024-03-02T01:29:36;69393.28;;;4.49;74.48
12452;BME280;72521;48.924;12.204;2024-03-02T01:34:40;69290.88;;;4.51;74.47
12452;BME280;72521;48.924;12.204;2024-03-02T01:39:44;69187.94;;;4.52;74.47
12452;BME280;72521;48.924;12.204;2024-03-02T01:44:49;69111.94;;;4.51;74.47
12452;BME280;72521;48.924;12.204;2024-03-02T01:49:53;68978.88;;;4.53;74.48
12452;BME280;72521;48.924;12.204;2024-03-02T01:54:57;68865.19;;;4.49;74.48
12452;BME280;72521;48.924;12.204;2024-03-02T02:00:03;68739.53;;;4.53;74.48
12452;BME280;72521;48.924;12.204;2024-03-02T02:05:13;68682.88;;;4.54;74.48
12452;BME280;72521;48.924;12.204;2024-03-02T02:10:17;68586.06;;;4.53;74.48
12452;BME280;72521;48.924;12.204;2024-03-02T02:15:27;68479.41;;;4.53;74.48
12452;BME280;72521;48.924;12.204;2024-03-02T02:20:31;68425.75;;;4.52;74.47
12452;BME280;72521;48.924;12.204;2024-03-02T02:25:37;68344.59;;;4.51;74.47
12452;BME280;72521;48.924;12.204;2024-03-02T02:30:41;68264.34;;;4.49;74.47
12452;BME280;72521;48.924;12.204;2024-03-02T02:35:45;68174.00;;;4.52;74.47
12452;BME280;72521;48.924;12.204;2024-03-02T02:40:50;68222.34;;;4.51;74.46
12452;BME280;72521;48.924;12.204;2024-03-02T02:45:54;68163.06;;;4.52;74.47
12452;BME280;72521;48.924;12.204;2024-03-02T02:50:58;69271.72;;;4.52;74.51
12452;BME280;72521;48.924;12.204;2024-03-02T02:56:04;68408.78;;;4.55;74.50
12452;BME280;72521;48.924;12.204;2024-03-02T03:01:09;68051.34;;;4.54;74.50
12452;BME280;72521;48.924;12.204;2024-03-02T03:06:13;67708.03;;;4.54;74.50
12452;BME280;72521;48.924;12.204;2024-03-02T03:11:19;66872.88;;;4.56;74.47
12452;BME280;72521;48.924;12.204;2024-03-02T03:16:25;66023.75;;;4.57;74.47
12452;BME280;72521;48.924;12.204;2024-03-02T03:21:29;65514.25;;;4.57;74.47
12452;BME280;72521;48.924;12.204;2024-03-02T03:26:36;65255.88;;;4.56;74.47
12452;BME280;72521;48.924;12.204;2024-03-02T03:31:40;65139.44;;;4.59;74.48
12452;BME280;72521;48.924;12.204;2024-03-02T03:36:44;64896.69;;;4.56;74.48
12452;BME280;72521;48.924;12.204;2024-03-02T03:41:49;64686.19;;;4.56;74.48
12452;BME280;72521;48.924;12.204;2024-03-02T03:46:53;64582.75;;;4.56;74.47
12452;BME280;72521;48.924;12.204;2024-03-02T03:51:57;64406.03;;;4.56;74.48
12452;BME280;72521;48.924;12.204;2024-03-02T03:57:03;64302.09;;;4.54;74.47
12452;BME280;72521;48.924;12.204;2024-03-02T04:02:07;64104.59;;;4.56;74.47
12452;BME280;72521;48.924;12.204;2024-03-02T04:07:11;63961.22;;;4.53;74.47
12452;BME280;72521;48.924;12.204;2024-03-02T04:12:16;63844.81;;;4.54;74.47
12452;BME280;72521;48.924;12.204;2024-03-02T04:17:20;63751.84;;;4.52;74.46
12452;BME280;72521;48.924;12.204;2024-03-02T04:22:24;63475.91;;;4.54;74.46
12452;BME280;72521;48.924;12.204;2024-03-02T04:27:30;63528.88;;;4.55;74.47
12452;BME280;72521;48.924;12.204;2024-03-02T04:32:34;63511.25;;;4.53;74.47
12452;BME280;72521;48.924;12.204;2024-03-02T04:37:39;62871.13;;;4.54;74.46
12452;BME280;72521;48.924;12.204;2024-03-02T04:42:44;62718.31;;;4.57;74.45
12452;BME280;72521;48.924;12.204;2024-03-02T04:47:48;62683.72;;;4.51;74.46
12452;BME280;72521;48.924;12.204;2024-03-02T04:52:51;62937.81;;;4.48;74.47
12452;BME280;72521;48.924;12.204;2024-03-02T04:57:56;63124.19;;;4.53;74.46
12452;BME280;72521;48.924;12.204;2024-03-02T05:03:01;63219.59;;;4.60;74.47
12452;BME280;72521;48.924;12.204;2024-03-02T05:08:05;63142.09;;;4.63;74.47
12452;BME280;72521;48.924;12.204;2024-03-02T05:13:11;63039.19;;;4.64;74.47
12452;BME280;72521;48.924;12.204;2024-03-02T05:18:15;62928.13;;;4.59;74.47
12452;BME280;72521;48.924;12.204;2024-03-02T05:23:18;62760.69;;;4.63;74.46
12452;BME280;72521;48.924;12.204;2024-03-02T05:28:24;62732.22;;;4.61;74.47
12452;BME280;72521;48.924;12.204;2024-03-02T05:33:27;62424.81;;;4.70;74.46
12452;BME280;72521;48.924;12.204;2024-03-02T05:38:35;62298.81;;;4.64;74.45
12452;BME280;72521;48.924;12.204;2024-03-02T05:43:40;62067.75;;;4.61;74.46
12452;BME280;72521;48.924;12.204;2024-03-02T05:48:44;62048.69;;;4.58;74.45
12452;BME280;72521;48.924;12.204;2024-03-02T05:53:48;61843.66;;;4.55;74.45
12452;BME280;72521;48.924;12.204;2024-03-02T05:58:53;61603.50;;;4.59;74.44
12452;BME280;72521;48.924;12.204;2024-03-02T06:04:11;61398.69;;;4.62;74.45
12452;BME280;72521;48.924;12.204;2024-03-02T06:09:15;61275.31;;;4.58;74.46
12452;BME280;72521;48.924;12.204;2024-03-02T06:14:20;60996.53;;;4.65;74.44
12452;BME280;72521;48.924;12.204;2024-03-02T06:19:25;60842.81;;;4.65;74.44
12452;BME280;72521;48.924;12.204;2024-03-02T06:24:30;60681.53;;;4.62;74.44
12452;BME280;72521;48.924;12.204;2024-03-02T06:29:35;60487.97;;;4.60;74.44
12452;BME280;72521;48.924;12.204;2024-03-02T06:34:39;60340.06;;;4.66;74.43
12452;BME280;72521;48.924;12.204;2024-03-02T06:39:43;60096.31;;;4.69;74.45
12452;BME280;72521;48.924;12.204;2024-03-02T06:44:48;59889.84;;;4.73;74.44
12452;BME280;72521;48.924;12.204;2024-03-02T06:49:53;59750.81;;;4.71;74.43
12452;BME280;72521;48.924;12.204;2024-03-02T06:54:57;59351.47;;;4.72;74.45
12452;BME280;72521;48.924;12.204;2024-03-02T07:00:03;59108.41;;;4.67;74.44
12452;BME280;72521;48.924;12.204;2024-03-02T07:05:07;58864.66;;;4.70;74.43
12452;BME280;72521;48.924;12.204;2024-03-02T07:10:12;58648.09;;;4.66;74.42
12452;BME280;72521;48.924;12.204;2024-03-02T07:15:17;58587.72;;;4.63;74.43
12452;BME280;72521;48.924;12.204;2024-03-02T07:20:45;58599.50;;;4.64;74.42
12452;BME280;72521;48.924;12.204;2024-03-02T07:25:49;58591.47;;;4.67;74.43
12452;BME280;72521;48.924;12.204;2024-03-02T07:31:01;58535.81;;;4.63;74.43
12452;BME280;72521;48.924;12.204;2024-03-02T07:36:08;58403.94;;;4.63;74.43
12452;BME280;72521;48.924;12.204;2024-03-02T07:41:12;58359.03;;;4.71;74.35
12452;BME280;72521;48.924;12.204;2024-03-02T07:46:17;58177.47;;;4.79;74.34
12452;BME280;72521;48.924;12.204;2024-03-02T07:51:21;57864.34;;;4.80;74.32
12452;BME280;72521;48.924;12.204;2024-03-02T07:56:25;57550.66;;;4.95;74.34
12452;BME280;72521;48.924;12.204;2024-03-02T08:01:31;57375.06;;;4.96;74.35
12452;BME280;72521;48.924;12.204;2024-03-02T08:06:36;56679.94;;;5.32;74.55
12452;BME280;72521;48.924;12.204;2024-03-02T08:11:40;56186.22;;;5.34;74.53
12452;BME280;72521;48.924;12.204;2024-03-02T08:16:45;55095.88;;;5.79;74.52
12452;BME280;72521;48.924;12.204;2024-03-02T08:21:50;53901.84;;;5.99;74.50
12452;BME280;72521;48.924;12.204;2024-03-02T08:26:54;52455.94;;;6.28;74.49
12452;BME280;72521;48.924;12.204;2024-03-02T08:31:59;51461.69;;;6.32;74.47
12452;BME280;72521;48.924;12.204;2024-03-02T08:37:04;50870.91;;;6.37;74.45
12452;BME280;72521;48.924;12.204;2024-03-02T08:42:08;51263.88;;;6.31;74.44
12452;BME280;72521;48.924;12.204;2024-03-02T08:47:13;53478.34;;;6.54;74.46
12452;BME280;72521;48.924;12.204;2024-03-02T08:52:17;56555.44;;;6.78;74.47
12452;BME280;72521;48.924;12.204;2024-03-02T08:57:21;60489.34;;;6.55;74.45
12452;BME280;72521;48.924;12.204;2024-03-02T09:02:26;63533.75;;;6.67;74.47
12452;BME280;72521;48.924;12.204;2024-03-02T09:07:30;65289.66;;;6.76;74.46
12452;BME280;72521;48.924;12.204;2024-03-02T09:12:34;66188.78;;;6.85;74.48
12452;BME280;72521;48.924;12.204;2024-03-02T09:17:40;67327.19;;;7.32;74.49
12452;BME280;72521;48.924;12.204;2024-03-02T09:22:44;68849.38;;;7.60;74.51
12452;BME280;72521;48.924;12.204;2024-03-02T09:27:49;70034.28;;;7.86;74.53
12452;BME280;72521;48.924;12.204;2024-03-02T09:32:54;70350.47;;;7.88;74.55
12452;BME280;72521;48.924;12.204;2024-03-02T09:38:18;70385.63;;;7.89;74.55
12452;BME280;72521;48.924;12.204;2024-03-02T09:43:23;70510.94;;;7.61;74.54
12452;BME280;72521;48.924;12.204;2024-03-02T09:48:28;70215.66;;;8.10;74.57
12452;BME280;72521;48.924;12.204;2024-03-02T09:53:33;70520.13;;;7.64;74.56
12452;BME280;72521;48.924;12.204;2024-03-02T09:58:39;70394.88;;;7.55;74.54
12452;BME280;72521;48.924;12.204;2024-03-02T10:03:44;70377.81;;;7.70;74.56
12452;BME280;72521;48.924;12.204;2024-03-02T10:08:53;70345.38;;;7.76;74.57
12452;BME280;72521;48.924;12.204;2024-03-02T10:14:08;70545.28;;;7.40;74.55
12452;BME280;72521;48.924;12.204;2024-03-02T10:19:18;70291.66;;;8.25;74.61
12452;BME280;72521;48.924;12.204;2024-03-02T10:24:23;70345.69;;;8.26;74.64
12452;BME280;72521;48.924;12.204;2024-03-02T10:29:29;70440.25;;;8.17;74.63
12452;BME280;72521;48.924;12.204;2024-03-02T10:34:36;70325.22;;;8.78;74.68
12452;BME280;72521;48.924;12.204;2024-03-02T10:39:40;69718.69;;;10.65;74.80
12452;BME280;72521;48.924;12.204;2024-03-02T10:44:45;70082.31;;;10.04;74.81
12452;BME280;72521;48.924;12.204;2024-03-02T10:49:51;70190.31;;;10.17;74.83
12452;BME280;72521;48.924;12.204;2024-03-02T10:54:56;70369.34;;;9.67;74.79
12452;BME280;72521;48.924;12.204;2024-03-02T11:00:03;70529.91;;;9.21;74.78
12452;BME280;72521;48.924;12.204;2024-03-02T11:05:11;70954.72;;;8.20;74.71
12452;BME280;72521;48.924;12.204;2024-03-02T11:10:17;71010.75;;;8.26;74.73
12452;BME280;72521;48.924;12.204;2024-03-02T11:15:25;71182.13;;;7.83;74.71
12452;BME280;72521;48.924;12.204;2024-03-02T11:20:33;70742.47;;;8.67;74.75
12452;BME280;72521;48.924;12.204;2024-03-02T11:25:38;71102.00;;;8.05;74.72
12452;BME280;72521;48.924;12.204;2024-03-02T11:30:50;71481.47;;;7.56;74.70
12452;BME280;72521;48.924;12.204;2024-03-02T11:35:57;71247.66;;;8.23;74.72
12452;BME280;72521;48.924;12.204;2024-03-02T11:41:05;70947.63;;;8.93;74.76
12452;BME280;72521;48.924;12.204;2024-03-02T11:46:11;71255.34;;;8.60;74.77
12452;BME280;72521;48.924;12.204;2024-03-02T11:51:17;71281.25;;;9.01;74.81
12452;BME280;72521;48.924;12.204;2024-03-02T11:56:21;71289.91;;;9.44;74.83
12452;BME280;72521;48.924;12.204;2024-03-02T12:01:25;71711.47;;;8.87;74.83
12452;BME280;72521;48.924;12.204;2024-03-02T12:06:30;71642.75;;;9.56;74.88
12452;BME280;72521;48.924;12.204;2024-03-02T12:11:34;72052.38;;;9.38;74.88
12452;BME280;72521;48.924;12.204;2024-03-02T12:16:39;72556.53;;;9.13;74.87
12452;BME280;72521;48.924;12.204;2024-03-02T12:21:46;72715.41;;;9.12;74.84
12452;BME280;72521;48.924;12.204;2024-03-02T12:26:51;72618.72;;;10.09;74.90
12452;BME280;72521;48.924;12.204;2024-03-02T12:31:55;73150.16;;;10.23;74.95
12452;BME280;72521;48.924;12.204;2024-03-02T12:37:00;73421.63;;;10.75;75.01
12452;BME280;72521;48.924;12.204;2024-03-02T12:42:05;74235.47;;;10.09;75.00
12452;BME280;72521;48.924;12.204;2024-03-02T12:47:09;74568.84;;;10.35;75.04
12452;BME280;72521;48.924;12.204;2024-03-02T12:52:16;75556.31;;;9.64;75.05
12452;BME280;72521;48.924;12.204;2024-03-02T12:57:24;75940.78;;;9.97;75.13
12452;BME280;72521;48.924;12.204;2024-03-02T13:02:29;76430.66;;;9.87;75.15
12452;BME280;72521;48.924;12.204;2024-03-02T13:07:34;77050.31;;;9.54;75.16
12452;BME280;72521;48.924;12.204;2024-03-02T13:12:38;77446.31;;;9.47;75.20
12452;BME280;72521;48.924;12.204;2024-03-02T13:17:44;77505.72;;;9.53;75.23
12452;BME280;72521;48.924;12.204;2024-03-02T13:22:49;77662.22;;;9.30;75.29
12452;BME280;72521;48.924;12.204;2024-03-02T13:27:54;77446.66;;;9.32;75.33
12452;BME280;72521;48.924;12.204;2024-03-02T13:32:59;76881.25;;;10.16;75.35
12452;BME280;72521;48.924;12.204;2024-03-02T13:38:04;77238.63;;;10.48;75.45
12452;BME280;72521;48.924;12.204;2024-03-02T13:43:08;76731.19;;;11.29;75.55
12452;BME280;72521;48.924;12.204;2024-03-02T13:48:12;76499.13;;;12.11;75.66
12452;BME280;72521;48.924;12.204;2024-03-02T13:53:19;76149.19;;;13.09;75.69
12452;BME280;72521;48.924;12.204;2024-03-02T13:58:23;76674.84;;;13.83;76.02
12452;BME280;72521;48.924;12.204;2024-03-02T14:03:27;77993.25;;;13.38;76.83
12452;BME280;72521;48.924;12.204;2024-03-02T14:08:34;78860.13;;;13.40;78.09
12452;BME280;72521;48.924;12.204;2024-03-02T14:13:38;79982.78;;;13.00;79.83
12452;BME280;72521;48.924;12.204;2024-03-02T14:18:45;80678.91;;;12.55;81.28
12452;BME280;72521;48.924;12.204;2024-03-02T14:23:50;81184.19;;;12.68;82.50
12452;BME280;72521;48.924;12.204;2024-03-02T14:28:54;81398.44;;;12.62;84.42
12452;BME280;72521;48.924;12.204;2024-03-02T14:33:58;81927.25;;;12.62;86.18
12452;BME280;72521;48.924;12.204;2024-03-02T14:39:03;82444.19;;;12.55;88.62
12452;BME280;72521;48.924;12.204;2024-03-02T14:44:10;82501.25;;;13.29;90.84
12452;BME280;72521;48.924;12.204;2024-03-02T14:49:14;82860.84;;;13.57;94.44
12452;BME280;72521;48.924;12.204;2024-03-02T14:54:19;83186.41;;;13.95;99.21
12452;BME280;72521;48.924;12.204;2024-03-02T14:59:23;83790.72;;;13.91;100.00
12452;BME280;72521;48.924;12.204;2024-03-02T15:04:27;84450.06;;;13.64;100.00
12452;BME280;72521;48.924;12.204;2024-03-02T15:09:33;84810.00;;;13.88;100.00
12452;BME280;72521;48.924;12.204;2024-03-02T15:14:38;84976.22;;;14.52;100.00
12452;BME280;72521;48.924;12.204;2024-03-02T15:19:48;85518.47;;;14.39;100.00
12452;BME280;72521;48.924;12.204;2024-03-02T15:24:53;85531.41;;;15.05;100.00
12452;BME280;72521;48.924;12.204;2024-03-02T15:29:58;85799.53;;;15.42;100.00
12452;BME280;72521;48.924;12.204;2024-03-02T15:35:02;86297.94;;;15.28;100.00
12452;BME280;72521;48.924;12.204;2024-03-02T15:40:09;86822.06;;;14.53;100.00
12452;BME280;72521;48.924;12.204;2024-03-02T15:45:14;86978.47;;;14.87;100.00
12452;BME280;72521;48.924;12.204;2024-03-02T15:50:18;86946.66;;;15.18;100.00
12452;BME280;72521;48.924;12.204;2024-03-02T15:55:23;87203.78;;;14.98;100.00
12452;BME280;72521;48.924;12.204;2024-03-02T16:00:27;87096.75;;;15.46;100.00
12452;BME280;72521;48.924;12.204;2024-03-02T16:05:31;87487.00;;;14.74;100.00
12452;BME280;72521;48.924;12.204;2024-03-02T16:10:36;88060.88;;;13.60;100.00
12452;BME280;72521;48.924;12.204;2024-03-02T16:15:40;88502.03;;;12.48;100.00
12452;BME280;72521;48.924;12.204;2024-03-02T16:20:45;88854.22;;;11.56;100.00
12452;BME280;72521;48.924;12.204;2024-03-02T16:25:51;89022.41;;;10.77;100.00
12452;BME280;72521;48.924;12.204;2024-03-02T16:30:55;89020.81;;;10.52;100.00
12452;BME280;72521;48.924;12.204;2024-03-02T16:35:59;89075.81;;;9.97;100.00
12452;BME280;72521;48.924;12.204;2024-03-02T16:41:05;88961.25;;;9.65;100.00
12452;BME280;72521;48.924;12.204;2024-03-02T16:46:10;88725.78;;;9.40;100.00
12452;BME280;72521;48.924;12.204;2024-03-02T16:51:14;88491.13;;;9.27;100.00
12452;BME280;72521;48.924;12.204;2024-03-02T16:56:20;88243.09;;;8.74;100.00
12452;BME280;72521;48.924;12.204;2024-03-02T17:01:26;87918.41;;;8.59;100.00
12452;BME280;72521;48.924;12.204;2024-03-02T17:06:30;87710.53;;;8.32;100.00
12452;BME280;72521;48.924;12.204;2024-03-02T17:11:35;87235.19;;;8.25;94.67
12452;BME280;72521;48.924;12.204;2024-03-02T17:16:39;86902.84;;;8.05;91.19
12452;BME280;72521;48.924;12.204;2024-03-02T17:21:44;86530.94;;;7.97;88.70
12452;BME280;72521;48.924;12.204;2024-03-02T17:26:49;86304.63;;;7.68;87.14
12452;BME280;72521;48.924;12.204;2024-03-02T17:31:54;85966.16;;;7.55;85.37
12452;BME280;72521;48.924;12.204;2024-03-02T17:36:58;85658.31;;;7.44;84.24
12452;BME280;72521;48.924;12.204;2024-03-02T17:42:05;85340.59;;;7.42;83.14
12452;BME280;72521;48.924;12.204;2024-03-02T17:47:09;84934.38;;;7.29;82.06
12452;BME280;72521;48.924;12.204;2024-03-02T17:52:13;84832.41;;;7.02;81.66
12452;BME280;72521;48.924;12.204;2024-03-02T17:57:19;84459.22;;;6.86;81.20
12452;BME280;72521;48.924;12.204;2024-03-02T18:02:26;84117.25;;;6.76;80.58
12452;BME280;72521;48.924;12.204;2024-03-02T18:07:32;83796.16;;;6.59;80.04
12452;BME280;72521;48.924;12.204;2024-03-02T18:12:40;83475.09;;;6.38;79.60
12452;BME280;72521;48.924;12.204;2024-03-02T18:17:46;83125.41;;;6.35;79.16
12452;BME280;72521;48.924;12.204;2024-03-02T18:22:50;82809.31;;;6.38;78.71
12452;BME280;72521;48.924;12.204;2024-03-02T18:27:58;82502.69;;;6.25;78.37
12452;BME280;72521;48.924;12.204;2024-03-02T18:33:02;82217.59;;;6.02;78.20
12452;BME280;72521;48.924;12.204;2024-03-02T18:38:06;81913.28;;;5.91;77.92
12452;BME280;72521;48.924;12.204;2024-03-02T18:43:12;81527.25;;;5.70;77.65
12452;BME280;72521;48.924;12.204;2024-03-02T18:48:16;80764.53;;;5.66;76.89
12452;BME280;72521;48.924;12.204;2024-03-02T18:53:21;80805.06;;;5.53;77.06
12452;BME280;72521;48.924;12.204;2024-03-02T18:58:27;80654.88;;;5.21;77.04
12452;BME280;72521;48.924;12.204;2024-03-02T19:03:31;80298.41;;;5.16;76.79
12452;BME280;72521;48.924;12.204;2024-03-02T19:08:35;79945.53;;;4.94;76.57
12452;BME280;72521;48.924;12.204;2024-03-02T19:13:41;79557.84;;;4.97;76.35
12452;BME280;72521;48.924;12.204;2024-03-02T19:18:45;79216.22;;;4.84;76.21
12452;BME280;72521;48.924;12.204;2024-03-02T19:23:49;78827.66;;;4.78;76.01
12452;BME280;72521;48.924;12.204;2024-03-02T19:28:55;78539.63;;;5.26;75.84
12452;BME280;72521;48.924;12.204;2024-03-02T19:34:00;78044.28;;;5.68;75.58
12452;BME280;72521;48.924;12.204;2024-03-02T19:39:04;77698.00;;;5.84;75.45
12452;BME280;72521;48.924;12.204;2024-03-02T19:44:10;77465.38;;;5.63;75.40
12452;BME280;72521;48.924;12.204;2024-03-02T19:49:14;77159.19;;;5.62;75.35
12452;BME280;72521;48.924;12.204;2024-03-02T19:54:19;76907.31;;;5.40;75.32
12452;BME280;72521;48.924;12.204;2024-03-02T19:59:24;76734.00;;;5.26;75.30
12452;BME280;72521;48.924;12.204;2024-03-02T20:04:27;76485.72;;;5.13;75.26
12452;BME280;72521;48.924;12.204;2024-03-02T20:09:31;76284.50;;;5.00;75.21
12452;BME280;72521;48.924;12.204;2024-03-02T20:14:37;76049.16;;;4.99;75.16
12452;BME280;72521;48.924;12.204;2024-03-02T20:19:42;75778.78;;;4.80;75.14
12452;BME280;72521;48.924;12.204;2024-03-02T20:24:46;75550.72;;;4.64;75.10
12452;BME280;72521;48.924;12.204;2024-03-02T20:29:51;75353.53;;;4.24;75.08
12452;BME280;72521;48.924;12.204;2024-03-02T20:34:55;75193.47;;;4.23;75.07
12452;BME280;72521;48.924;12.204;2024-03-02T20:40:00;74916.03;;;3.95;75.01
12452;BME280;72521;48.924;12.204;2024-03-02T20:45:06;74555.06;;;4.00;74.97
12452;BME280;72521;48.924;12.204;2024-03-02T20:50:12;74344.06;;;3.76;74.95
12452;BME280;72521;48.924;12.204;2024-03-02T20:55:17;74099.50;;;3.76;74.92
12452;BME280;72521;48.924;12.204;2024-03-02T21:00:22;73838.72;;;3.82;74.88
12452;BME280;72521;48.924;12.204;2024-03-02T21:05:26;73621.63;;;3.63;74.86
12452;BME280;72521;48.924;12.204;2024-03-02T21:10:31;73550.56;;;3.54;74.85
12452;BME280;72521;48.924;12.204;2024-03-02T21:15:36;73292.78;;;3.40;74.82
12452;BME280;72521;48.924;12.204;2024-03-02T21:20:40;73156.41;;;3.39;74.82
12452;BME280;72521;48.924;12.204;2024-03-02T21:25:44;72986.28;;;3.38;74.82
12452;BME280;72521;48.924;12.204;2024-03-02T21:30:50;72773.59;;;3.45;74.81
12452;BME280;72521;48.924;12.204;2024-03-02T21:35:54;72591.41;;;3.31;74.77
12452;BME280;72521;48.924;12.204;2024-03-02T21:40:58;72360.69;;;3.57;74.77
12452;BME280;72521;48.924;12.204;2024-03-02T21:46:03;72293.84;;;3.71;74.76
12452;BME280;72521;48.924;12.204;2024-03-02T21:51:07;72054.69;;;3.80;74.76
12452;BME280;72521;48.924;12.204;2024-03-02T21:56:11;71812.88;;;4.03;74.76
12452;BME280;72521;48.924;12.204;2024-03-02T22:01:17;71631.66;;;4.10;74.82
12452;BME280;72521;48.924;12.204;2024-03-02T22:06:21;71551.31;;;3.99;74.81
12452;BME280;72521;48.924;12.204;2024-03-02T22:11:25;71543.34;;;3.60;74.83
12452;BME280;72521;48.924;12.204;2024-03-02T22:16:31;71547.13;;;3.48;74.84
12452;BME280;72521;48.924;12.204;2024-03-02T22:21:35;71361.47;;;3.51;74.82
12452;BME280;72521;48.924;12.204;2024-03-02T22:26:39;71364.97;;;3.41;74.81
12452;BME280;72521;48.924;12.204;2024-03-02T22:31:44;71247.22;;;3.38;74.80
12452;BME280;72521;48.924;12.204;2024-03-02T22:36:48;71052.03;;;3.44;74.78
12452;BME280;72521;48.924;12.204;2024-03-02T22:41:52;71207.09;;;3.36;74.79
12452;BME280;72521;48.924;12.204;2024-03-02T22:46:59;71172.69;;;3.45;74.79
12452;BME280;72521;48.924;12.204;2024-03-02T22:52:03;71317.19;;;3.69;74.83
12452;BME280;72521;48.924;12.204;2024-03-02T22:57:07;71139.66;;;3.87;74.80
12452;BME280;72521;48.924;12.204;2024-03-02T23:02:21;71057.66;;;3.84;74.79
12452;BME280;72521;48.924;12.204;2024-03-02T23:07:26;71107.28;;;3.61;74.79
12452;BME280;72521;48.924;12.204;2024-03-02T23:12:30;71080.41;;;3.32;74.77
12452;BME280;72521;48.924;12.204;2024-03-02T23:17:35;71075.91;;;3.19;74.75
12452;BME280;72521;48.924;12.204;2024-03-02T23:22:39;70999.06;;;2.99;74.73
12452;BME280;72521;48.924;12.204;2024-03-02T23:27:44;71033.53;;;2.86;74.73
12452;BME280;72521;48.924;12.204;2024-03-02T23:32:50;70943.19;;;2.91;74.72
12452;BME280;72521;48.924;12.204;2024-03-02T23:37:54;70904.22;;;2.96;74.71
12452;BME280;72521;48.924;12.204;2024-03-02T23:42:58;70835.00;;;2.94;74.70
12452;BME280;72521;48.924;12.204;2024-03-02T23:48:06;70735.34;;;2.84;74.65
12452;BME280;72521;48.924;12.204;2024-03-02T23:53:11;70686.22;;;2.71;74.63
12452;BME280;72521;48.924;12.204;2024-03-02T23:58:15;70651.56;;;2.93;74.65
